VOHY/HYD METAR and TAF weather

Enter ICAO airport designator
Station Type Date Time Source
VOHY METAR 2022/06/29 15:00 UTC NOAA

VOHY 291500Z 00000KT 6000 FEW015 SCT100 26/24 Q1006 NOSIG


Station Type Date Time Source
VOHY Decoded METAR 2022/06/29 15:00 UTC NOAA

Hyderabad Airport, India (VOHY) 17-27N 078-28E 545M
Jun 29, 2022 - 11:00 AM EDT / 2022.06.29 1500 UTC
Wind: Calm:0
Visibility: 3 mile(s):0
Sky conditions: partly cloudy
Temperature: 78 F (26 C)
Dew Point: 75 F (24 C)
Relative Humidity: 88%
Pressure (altimeter): 29.71 in. Hg (1006 hPa)
ob: VOHY 291500Z 00000KT 6000 FEW015 SCT100 26/24 Q1006 NOSIG
cycle: 15

Station Type Date Time Source
VOHY TAF 2022/06/06 00:00 UTC NOAA

TAF VOHY 062300Z 0700/0709 23007KT 5000 HZ SCT015 BKN100
TEMPO 0700/0702 VRB03KT 3000 BR SCT010 FEW030CB
BECMG 0705/0707 24010KT 6000 SCT015 SCT025

Example: see airport list